sensor_id;sensor_type;location;lat;lon;timestamp;P1;durP1;ratioP1;P2;durP2;ratioP2
23814;SDS011;12088;53.078;8.720;2024-01-06T00:01:35;13.70;;;8.30;;
23814;SDS011;12088;53.078;8.720;2024-01-06T00:04:01;12.90;;;7.97;;
23814;SDS011;12088;53.078;8.720;2024-01-06T00:06:27;14.77;;;8.73;;
23814;SDS011;12088;53.078;8.720;2024-01-06T00:08:55;13.80;;;7.37;;
23814;SDS011;12088;53.078;8.720;2024-01-06T00:11:22;13.47;;;7.90;;
23814;SDS011;12088;53.078;8.720;2024-01-06T00:13:48;13.47;;;8.20;;
23814;SDS011;12088;53.078;8.720;2024-01-06T00:16:18;13.63;;;7.70;;
23814;SDS011;12088;53.078;8.720;2024-01-06T00:18:44;13.50;;;8.03;;
23814;SDS011;12088;53.078;8.720;2024-01-06T00:21:10;14.17;;;8.23;;
23814;SDS011;12088;53.078;8.720;2024-01-06T00:23:36;14.07;;;7.60;;
23814;SDS011;12088;53.078;8.720;2024-01-06T00:26:02;13.30;;;8.03;;
23814;SDS011;12088;53.078;8.720;2024-01-06T00:28:28;12.87;;;7.73;;
23814;SDS011;12088;53.078;8.720;2024-01-06T00:30:54;12.20;;;8.10;;
23814;SDS011;12088;53.078;8.720;2024-01-06T00:33:20;15.13;;;8.33;;
23814;SDS011;12088;53.078;8.720;2024-01-06T00:35:46;13.53;;;7.73;;
23814;SDS011;12088;53.078;8.720;2024-01-06T00:38:12;12.50;;;8.47;;
23814;SDS011;12088;53.078;8.720;2024-01-06T00:40:38;14.27;;;7.70;;
23814;SDS011;12088;53.078;8.720;2024-01-06T00:43:04;12.87;;;7.57;;
23814;SDS011;12088;53.078;8.720;2024-01-06T00:45:30;14.00;;;7.93;;
23814;SDS011;12088;53.078;8.720;2024-01-06T00:47:56;11.70;;;7.77;;
23814;SDS011;12088;53.078;8.720;2024-01-06T00:50:22;12.23;;;7.90;;
23814;SDS011;12088;53.078;8.720;2024-01-06T00:52:48;11.67;;;7.40;;
23814;SDS011;12088;53.078;8.720;2024-01-06T00:55:21;13.63;;;7.53;;
23814;SDS011;12088;53.078;8.720;2024-01-06T00:57:47;13.73;;;6.90;;
23814;SDS011;12088;53.078;8.720;2024-01-06T01:00:13;13.17;;;7.90;;
23814;SDS011;12088;53.078;8.720;2024-01-06T01:02:39;12.07;;;6.60;;
23814;SDS011;12088;53.078;8.720;2024-01-06T01:05:05;11.30;;;7.10;;
23814;SDS011;12088;53.078;8.720;2024-01-06T01:07:34;11.93;;;7.10;;
23814;SDS011;12088;53.078;8.720;2024-01-06T01:10:00;12.77;;;7.17;;
23814;SDS011;12088;53.078;8.720;2024-01-06T01:12:26;12.97;;;7.53;;
23814;SDS011;12088;53.078;8.720;2024-01-06T01:14:52;10.80;;;6.97;;
23814;SDS011;12088;53.078;8.720;2024-01-06T01:17:18;10.33;;;6.27;;
23814;SDS011;12088;53.078;8.720;2024-01-06T01:19:44;12.10;;;7.07;;
23814;SDS011;12088;53.078;8.720;2024-01-06T01:22:10;10.27;;;6.40;;
23814;SDS011;12088;53.078;8.720;2024-01-06T01:24:36;11.90;;;6.97;;
23814;SDS011;12088;53.078;8.720;2024-01-06T01:27:02;11.47;;;6.60;;
23814;SDS011;12088;53.078;8.720;2024-01-06T01:29:28;12.10;;;7.13;;
23814;SDS011;12088;53.078;8.720;2024-01-06T01:31:54;11.47;;;7.00;;
23814;SDS011;12088;53.078;8.720;2024-01-06T01:34:24;11.43;;;5.80;;
23814;SDS011;12088;53.078;8.720;2024-01-06T01:36:50;14.60;;;7.57;;
23814;SDS011;12088;53.078;8.720;2024-01-06T01:39:16;11.80;;;7.10;;
23814;SDS011;12088;53.078;8.720;2024-01-06T01:41:42;12.53;;;7.23;;
23814;SDS011;12088;53.078;8.720;2024-01-06T01:44:08;13.43;;;7.27;;
23814;SDS011;12088;53.078;8.720;2024-01-06T01:46:34;10.43;;;6.37;;
23814;SDS011;12088;53.078;8.720;2024-01-06T01:49:01;13.73;;;7.13;;
23814;SDS011;12088;53.078;8.720;2024-01-06T01:51:28;13.70;;;7.43;;
23814;SDS011;12088;53.078;8.720;2024-01-06T01:53:55;14.13;;;7.70;;
23814;SDS011;12088;53.078;8.720;2024-01-06T01:56:21;10.87;;;7.07;;
23814;SDS011;12088;53.078;8.720;2024-01-06T01:58:47;13.53;;;6.57;;
23814;SDS011;12088;53.078;8.720;2024-01-06T02:01:13;13.03;;;7.33;;
23814;SDS011;12088;53.078;8.720;2024-01-06T02:03:40;14.00;;;7.27;;
23814;SDS011;12088;53.078;8.720;2024-01-06T02:06:10;11.57;;;7.10;;
23814;SDS011;12088;53.078;8.720;2024-01-06T02:08:36;11.47;;;6.43;;
23814;SDS011;12088;53.078;8.720;2024-01-06T02:11:02;10.93;;;6.93;;
23814;SDS011;12088;53.078;8.720;2024-01-06T02:13:32;14.10;;;7.50;;
23814;SDS011;12088;53.078;8.720;2024-01-06T02:15:59;12.73;;;7.10;;
23814;SDS011;12088;53.078;8.720;2024-01-06T02:18:25;12.60;;;6.87;;
23814;SDS011;12088;53.078;8.720;2024-01-06T02:20:51;10.17;;;6.33;;
23814;SDS011;12088;53.078;8.720;2024-01-06T02:23:18;12.17;;;6.50;;
23814;SDS011;12088;53.078;8.720;2024-01-06T02:25:44;12.17;;;7.13;;
23814;SDS011;12088;53.078;8.720;2024-01-06T02:28:10;14.00;;;7.43;;
23814;SDS011;12088;53.078;8.720;2024-01-06T02:30:36;10.37;;;6.60;;
23814;SDS011;12088;53.078;8.720;2024-01-06T02:33:02;11.63;;;7.97;;
23814;SDS011;12088;53.078;8.720;2024-01-06T02:35:28;16.20;;;7.90;;
23814;SDS011;12088;53.078;8.720;2024-01-06T02:37:54;12.17;;;7.40;;
23814;SDS011;12088;53.078;8.720;2024-01-06T02:40:20;11.60;;;7.83;;
23814;SDS011;12088;53.078;8.720;2024-01-06T02:42:46;12.30;;;7.40;;
23814;SDS011;12088;53.078;8.720;2024-01-06T02:45:12;15.47;;;8.03;;
23814;SDS011;12088;53.078;8.720;2024-01-06T02:47:38;12.47;;;7.00;;
23814;SDS011;12088;53.078;8.720;2024-01-06T02:50:04;16.30;;;9.00;;
23814;SDS011;12088;53.078;8.720;2024-01-06T02:52:30;13.43;;;8.43;;
23814;SDS011;12088;53.078;8.720;2024-01-06T02:54:56;13.37;;;8.27;;
23814;SDS011;12088;53.078;8.720;2024-01-06T02:57:23;14.10;;;8.67;;
23814;SDS011;12088;53.078;8.720;2024-01-06T02:59:49;14.33;;;8.80;;
23814;SDS011;12088;53.078;8.720;2024-01-06T03:02:15;14.73;;;8.87;;
23814;SDS011;12088;53.078;8.720;2024-01-06T03:04:41;14.53;;;9.03;;
23814;SDS011;12088;53.078;8.720;2024-01-06T03:07:07;14.80;;;8.87;;
23814;SDS011;12088;53.078;8.720;2024-01-06T03:09:33;14.97;;;8.73;;
23814;SDS011;12088;53.078;8.720;2024-01-06T03:11:59;13.77;;;8.90;;
23814;SDS011;12088;53.078;8.720;2024-01-06T03:14:25;15.00;;;8.83;;
23814;SDS011;12088;53.078;8.720;2024-01-06T03:16:51;15.57;;;9.30;;
23814;SDS011;12088;53.078;8.720;2024-01-06T03:19:17;15.60;;;8.47;;
23814;SDS011;12088;53.078;8.720;2024-01-06T03:21:43;13.00;;;8.53;;
23814;SDS011;12088;53.078;8.720;2024-01-06T03:24:09;12.67;;;8.40;;
23814;SDS011;12088;53.078;8.720;2024-01-06T03:26:35;13.43;;;8.30;;
23814;SDS011;12088;53.078;8.720;2024-01-06T03:29:01;17.87;;;9.97;;
23814;SDS011;12088;53.078;8.720;2024-01-06T03:31:28;12.07;;;7.77;;
23814;SDS011;12088;53.078;8.720;2024-01-06T03:33:54;14.70;;;8.27;;
23814;SDS011;12088;53.078;8.720;2024-01-06T03:36:20;14.13;;;8.60;;
23814;SDS011;12088;53.078;8.720;2024-01-06T03:38:46;14.00;;;8.47;;
23814;SDS011;12088;53.078;8.720;2024-01-06T03:41:13;14.87;;;9.17;;
23814;SDS011;12088;53.078;8.720;2024-01-06T03:43:39;12.97;;;7.47;;
23814;SDS011;12088;53.078;8.720;2024-01-06T03:46:05;12.33;;;8.27;;
23814;SDS011;12088;53.078;8.720;2024-01-06T03:48:31;13.87;;;7.80;;
23814;SDS011;12088;53.078;8.720;2024-01-06T03:50:58;14.13;;;8.07;;
23814;SDS011;12088;53.078;8.720;2024-01-06T03:53:24;12.80;;;7.67;;
23814;SDS011;12088;53.078;8.720;2024-01-06T03:55:50;13.03;;;7.60;;
23814;SDS011;12088;53.078;8.720;2024-01-06T03:58:17;13.97;;;8.23;;
23814;SDS011;12088;53.078;8.720;2024-01-06T04:00:43;12.43;;;7.50;;
23814;SDS011;12088;53.078;8.720;2024-01-06T04:03:09;12.87;;;7.73;;
23814;SDS011;12088;53.078;8.720;2024-01-06T04:05:35;13.77;;;8.17;;
23814;SDS011;12088;53.078;8.720;2024-01-06T04:08:01;13.83;;;8.20;;
23814;SDS011;12088;53.078;8.720;2024-01-06T04:10:27;11.53;;;7.57;;
23814;SDS011;12088;53.078;8.720;2024-01-06T04:12:52;11.87;;;7.40;;
23814;SDS011;12088;53.078;8.720;2024-01-06T04:15:18;14.37;;;8.07;;
23814;SDS011;12088;53.078;8.720;2024-01-06T04:17:47;12.43;;;7.57;;
23814;SDS011;12088;53.078;8.720;2024-01-06T04:20:14;12.73;;;7.40;;
23814;SDS011;12088;53.078;8.720;2024-01-06T04:22:40;11.50;;;7.20;;
23814;SDS011;12088;53.078;8.720;2024-01-06T04:25:06;11.00;;;7.13;;
23814;SDS011;12088;53.078;8.720;2024-01-06T04:27:32;12.93;;;7.67;;
23814;SDS011;12088;53.078;8.720;2024-01-06T04:29:59;13.47;;;7.60;;
23814;SDS011;12088;53.078;8.720;2024-01-06T04:32:25;15.83;;;7.80;;
23814;SDS011;12088;53.078;8.720;2024-01-06T04:34:51;10.80;;;7.00;;
23814;SDS011;12088;53.078;8.720;2024-01-06T04:37:17;12.30;;;7.03;;
23814;SDS011;12088;53.078;8.720;2024-01-06T04:39:43;11.63;;;6.80;;
23814;SDS011;12088;53.078;8.720;2024-01-06T04:42:09;14.13;;;7.47;;
23814;SDS011;12088;53.078;8.720;2024-01-06T04:44:35;12.93;;;7.07;;
23814;SDS011;12088;53.078;8.720;2024-01-06T04:47:01;11.20;;;6.97;;
23814;SDS011;12088;53.078;8.720;2024-01-06T04:49:27;11.70;;;7.07;;
23814;SDS011;12088;53.078;8.720;2024-01-06T04:51:53;12.53;;;7.47;;
23814;SDS011;12088;53.078;8.720;2024-01-06T04:54:20;13.37;;;7.57;;
23814;SDS011;12088;53.078;8.720;2024-01-06T04:56:46;14.07;;;7.97;;
23814;SDS011;12088;53.078;8.720;2024-01-06T04:59:12;9.93;;;6.50;;
23814;SDS011;12088;53.078;8.720;2024-01-06T05:01:38;11.23;;;6.97;;
23814;SDS011;12088;53.078;8.720;2024-01-06T05:04:04;10.00;;;6.80;;
23814;SDS011;12088;53.078;8.720;2024-01-06T05:06:30;13.17;;;7.30;;
23814;SDS011;12088;53.078;8.720;2024-01-06T05:08:56;11.10;;;6.77;;
23814;SDS011;12088;53.078;8.720;2024-01-06T05:11:22;13.90;;;7.37;;
23814;SDS011;12088;53.078;8.720;2024-01-06T05:13:48;12.00;;;7.10;;
23814;SDS011;12088;53.078;8.720;2024-01-06T05:16:14;13.90;;;7.03;;
23814;SDS011;12088;53.078;8.720;2024-01-06T05:18:40;13.53;;;6.80;;
23814;SDS011;12088;53.078;8.720;2024-01-06T05:21:06;13.57;;;7.37;;
23814;SDS011;12088;53.078;8.720;2024-01-06T05:23:32;11.60;;;7.20;;
23814;SDS011;12088;53.078;8.720;2024-01-06T05:25:58;13.33;;;7.57;;
23814;SDS011;12088;53.078;8.720;2024-01-06T05:28:24;11.47;;;8.00;;
23814;SDS011;12088;53.078;8.720;2024-01-06T05:30:50;11.80;;;7.07;;
23814;SDS011;12088;53.078;8.720;2024-01-06T05:33:16;10.90;;;7.37;;
23814;SDS011;12088;53.078;8.720;2024-01-06T05:35:42;14.43;;;7.20;;
23814;SDS011;12088;53.078;8.720;2024-01-06T05:38:08;12.20;;;7.63;;
23814;SDS011;12088;53.078;8.720;2024-01-06T05:40:34;14.17;;;7.70;;
23814;SDS011;12088;53.078;8.720;2024-01-06T05:43:00;12.53;;;8.00;;
23814;SDS011;12088;53.078;8.720;2024-01-06T05:45:26;13.17;;;8.00;;
23814;SDS011;12088;53.078;8.720;2024-01-06T05:47:52;12.50;;;7.57;;
23814;SDS011;12088;53.078;8.720;2024-01-06T05:50:18;12.70;;;7.90;;
23814;SDS011;12088;53.078;8.720;2024-01-06T05:52:44;10.97;;;7.00;;
23814;SDS011;12088;53.078;8.720;2024-01-06T05:55:12;12.53;;;7.60;;
23814;SDS011;12088;53.078;8.720;2024-01-06T05:57:38;12.00;;;7.33;;
23814;SDS011;12088;53.078;8.720;2024-01-06T06:00:08;12.90;;;7.30;;
23814;SDS011;12088;53.078;8.720;2024-01-06T06:02:35;10.30;;;7.00;;
23814;SDS011;12088;53.078;8.720;2024-01-06T06:05:01;13.00;;;8.07;;
23814;SDS011;12088;53.078;8.720;2024-01-06T06:07:27;11.73;;;7.40;;
23814;SDS011;12088;53.078;8.720;2024-01-06T06:09:53;12.30;;;7.63;;
23814;SDS011;12088;53.078;8.720;2024-01-06T06:12:20;14.23;;;8.37;;
23814;SDS011;12088;53.078;8.720;2024-01-06T06:14:46;12.63;;;8.10;;
23814;SDS011;12088;53.078;8.720;2024-01-06T06:17:12;12.03;;;7.73;;
23814;SDS011;12088;53.078;8.720;2024-01-06T06:19:38;11.73;;;7.67;;
23814;SDS011;12088;53.078;8.720;2024-01-06T06:22:04;13.37;;;8.10;;
23814;SDS011;12088;53.078;8.720;2024-01-06T06:24:30;15.47;;;8.57;;
23814;SDS011;12088;53.078;8.720;2024-01-06T06:26:56;10.70;;;7.47;;
23814;SDS011;12088;53.078;8.720;2024-01-06T06:29:22;12.37;;;7.83;;
23814;SDS011;12088;53.078;8.720;2024-01-06T06:31:48;13.13;;;8.47;;
23814;SDS011;12088;53.078;8.720;2024-01-06T06:34:14;11.73;;;7.97;;
23814;SDS011;12088;53.078;8.720;2024-01-06T06:36:40;12.13;;;7.80;;
23814;SDS011;12088;53.078;8.720;2024-01-06T06:39:06;14.07;;;8.40;;
23814;SDS011;12088;53.078;8.720;2024-01-06T06:41:32;13.23;;;8.30;;
23814;SDS011;12088;53.078;8.720;2024-01-06T06:43:58;15.63;;;9.63;;
23814;SDS011;12088;53.078;8.720;2024-01-06T06:46:25;14.80;;;9.20;;
23814;SDS011;12088;53.078;8.720;2024-01-06T06:48:51;15.00;;;8.83;;
23814;SDS011;12088;53.078;8.720;2024-01-06T06:51:17;14.33;;;9.03;;
23814;SDS011;12088;53.078;8.720;2024-01-06T06:53:43;15.43;;;9.77;;
23814;SDS011;12088;53.078;8.720;2024-01-06T06:56:09;17.07;;;9.90;;
23814;SDS011;12088;53.078;8.720;2024-01-06T06:58:35;15.30;;;9.63;;
23814;SDS011;12088;53.078;8.720;2024-01-06T07:01:05;16.23;;;10.00;;
23814;SDS011;12088;53.078;8.720;2024-01-06T07:03:31;16.23;;;9.40;;
23814;SDS011;12088;53.078;8.720;2024-01-06T07:05:57;17.20;;;10.37;;
23814;SDS011;12088;53.078;8.720;2024-01-06T07:08:23;14.93;;;9.47;;
23814;SDS011;12088;53.078;8.720;2024-01-06T07:10:48;15.40;;;10.33;;
23814;SDS011;12088;53.078;8.720;2024-01-06T07:13:14;14.97;;;10.60;;
23814;SDS011;12088;53.078;8.720;2024-01-06T07:15:40;15.23;;;9.40;;
23814;SDS011;12088;53.078;8.720;2024-01-06T07:18:07;16.97;;;10.23;;
23814;SDS011;12088;53.078;8.720;2024-01-06T07:20:33;15.10;;;10.07;;
23814;SDS011;12088;53.078;8.720;2024-01-06T07:22:59;18.47;;;10.03;;
23814;SDS011;12088;53.078;8.720;2024-01-06T07:25:25;17.10;;;10.30;;
23814;SDS011;12088;53.078;8.720;2024-01-06T07:27:51;18.33;;;10.30;;
23814;SDS011;12088;53.078;8.720;2024-01-06T07:30:17;17.50;;;10.00;;
23814;SDS011;12088;53.078;8.720;2024-01-06T07:32:43;15.63;;;9.77;;
23814;SDS011;12088;53.078;8.720;2024-01-06T07:35:09;16.20;;;9.83;;
23814;SDS011;12088;53.078;8.720;2024-01-06T07:37:35;19.93;;;11.53;;
23814;SDS011;12088;53.078;8.720;2024-01-06T07:40:01;18.97;;;11.17;;
23814;SDS011;12088;53.078;8.720;2024-01-06T07:42:27;19.23;;;11.67;;
23814;SDS011;12088;53.078;8.720;2024-01-06T07:44:53;20.20;;;12.03;;
23814;SDS011;12088;53.078;8.720;2024-01-06T07:47:18;21.10;;;11.80;;
23814;SDS011;12088;53.078;8.720;2024-01-06T07:49:44;21.07;;;12.00;;
23814;SDS011;12088;53.078;8.720;2024-01-06T07:52:11;19.83;;;11.87;;
23814;SDS011;12088;53.078;8.720;2024-01-06T07:54:38;19.67;;;11.30;;
23814;SDS011;12088;53.078;8.720;2024-01-06T07:57:04;20.63;;;11.80;;
23814;SDS011;12088;53.078;8.720;2024-01-06T07:59:30;20.13;;;12.07;;
23814;SDS011;12088;53.078;8.720;2024-01-06T08:01:56;20.23;;;11.20;;
23814;SDS011;12088;53.078;8.720;2024-01-06T08:04:23;22.20;;;11.47;;
23814;SDS011;12088;53.078;8.720;2024-01-06T08:06:49;19.97;;;11.00;;
23814;SDS011;12088;53.078;8.720;2024-01-06T08:09:15;18.07;;;11.47;;
23814;SDS011;12088;53.078;8.720;2024-01-06T08:11:41;19.63;;;12.13;;
23814;SDS011;12088;53.078;8.720;2024-01-06T08:14:10;24.07;;;12.17;;
23814;SDS011;12088;53.078;8.720;2024-01-06T08:16:36;18.90;;;11.50;;
23814;SDS011;12088;53.078;8.720;2024-01-06T08:19:02;19.93;;;11.57;;
23814;SDS011;12088;53.078;8.720;2024-01-06T08:21:28;22.73;;;12.33;;
23814;SDS011;12088;53.078;8.720;2024-01-06T08:23:54;20.23;;;10.93;;
23814;SDS011;12088;53.078;8.720;2024-01-06T08:26:20;19.53;;;11.00;;
23814;SDS011;12088;53.078;8.720;2024-01-06T08:28:47;23.57;;;12.90;;
23814;SDS011;12088;53.078;8.720;2024-01-06T08:31:13;21.77;;;11.63;;
23814;SDS011;12088;53.078;8.720;2024-01-06T08:33:38;19.77;;;12.13;;
23814;SDS011;12088;53.078;8.720;2024-01-06T08:36:05;22.13;;;11.60;;
23814;SDS011;12088;53.078;8.720;2024-01-06T08:38:31;20.63;;;12.90;;
23814;SDS011;12088;53.078;8.720;2024-01-06T08:40:57;22.90;;;12.93;;
23814;SDS011;12088;53.078;8.720;2024-01-06T08:43:23;22.03;;;12.53;;
23814;SDS011;12088;53.078;8.720;2024-01-06T08:45:49;24.17;;;13.40;;
23814;SDS011;12088;53.078;8.720;2024-01-06T08:48:16;22.10;;;12.53;;
23814;SDS011;12088;53.078;8.720;2024-01-06T08:50:43;21.60;;;12.63;;
23814;SDS011;12088;53.078;8.720;2024-01-06T08:53:10;23.47;;;13.10;;
23814;SDS011;12088;53.078;8.720;2024-01-06T08:55:36;21.67;;;12.47;;
23814;SDS011;12088;53.078;8.720;2024-01-06T08:58:02;25.50;;;12.57;;
23814;SDS011;12088;53.078;8.720;2024-01-06T09:00:28;21.83;;;13.00;;
23814;SDS011;12088;53.078;8.720;2024-01-06T09:02:54;23.70;;;13.13;;
23814;SDS011;12088;53.078;8.720;2024-01-06T09:05:20;20.43;;;10.97;;
23814;SDS011;12088;53.078;8.720;2024-01-06T09:07:46;26.13;;;14.57;;
23814;SDS011;12088;53.078;8.720;2024-01-06T09:10:15;24.27;;;14.43;;
23814;SDS011;12088;53.078;8.720;2024-01-06T09:12:41;24.70;;;13.80;;
23814;SDS011;12088;53.078;8.720;2024-01-06T09:15:07;25.50;;;13.33;;
23814;SDS011;12088;53.078;8.720;2024-01-06T09:17:34;23.70;;;13.80;;
23814;SDS011;12088;53.078;8.720;2024-01-06T09:20:00;24.40;;;13.83;;
23814;SDS011;12088;53.078;8.720;2024-01-06T09:22:26;28.23;;;14.20;;
23814;SDS011;12088;53.078;8.720;2024-01-06T09:24:52;26.37;;;14.47;;
23814;SDS011;12088;53.078;8.720;2024-01-06T09:27:18;23.83;;;13.70;;
23814;SDS011;12088;53.078;8.720;2024-01-06T09:29:44;26.10;;;14.80;;
23814;SDS011;12088;53.078;8.720;2024-01-06T09:32:10;24.00;;;13.87;;
23814;SDS011;12088;53.078;8.720;2024-01-06T09:34:38;23.80;;;13.50;;
23814;SDS011;12088;53.078;8.720;2024-01-06T09:37:04;25.43;;;14.33;;
23814;SDS011;12088;53.078;8.720;2024-01-06T09:39:30;28.63;;;14.27;;
23814;SDS011;12088;53.078;8.720;2024-01-06T09:41:56;24.87;;;14.07;;
23814;SDS011;12088;53.078;8.720;2024-01-06T09:44:23;23.73;;;14.37;;
23814;SDS011;12088;53.078;8.720;2024-01-06T09:46:49;22.87;;;13.87;;
23814;SDS011;12088;53.078;8.720;2024-01-06T09:49:22;21.17;;;12.47;;
23814;SDS011;12088;53.078;8.720;2024-01-06T09:51:49;21.30;;;12.83;;
23814;SDS011;12088;53.078;8.720;2024-01-06T09:54:16;22.17;;;12.70;;
23814;SDS011;12088;53.078;8.720;2024-01-06T09:56:47;22.77;;;13.03;;
23814;SDS011;12088;53.078;8.720;2024-01-06T09:59:14;26.33;;;13.90;;
23814;SDS011;12088;53.078;8.720;2024-01-06T10:01:41;25.53;;;13.73;;
23814;SDS011;12088;53.078;8.720;2024-01-06T10:04:08;24.80;;;14.47;;
23814;SDS011;12088;53.078;8.720;2024-01-06T10:06:33;23.87;;;13.80;;
23814;SDS011;12088;53.078;8.720;2024-01-06T10:09:01;29.00;;;14.77;;
23814;SDS011;12088;53.078;8.720;2024-01-06T10:11:29;26.90;;;14.47;;
23814;SDS011;12088;53.078;8.720;2024-01-06T10:13:55;19.33;;;12.50;;
23814;SDS011;12088;53.078;8.720;2024-01-06T10:16:21;23.80;;;13.97;;
23814;SDS011;12088;53.078;8.720;2024-01-06T10:18:47;23.70;;;13.50;;
23814;SDS011;12088;53.078;8.720;2024-01-06T10:21:13;24.77;;;14.23;;
23814;SDS011;12088;53.078;8.720;2024-01-06T10:23:44;25.63;;;13.73;;
23814;SDS011;12088;53.078;8.720;2024-01-06T10:26:16;24.13;;;13.93;;
23814;SDS011;12088;53.078;8.720;2024-01-06T10:28:42;24.77;;;14.00;;
23814;SDS011;12088;53.078;8.720;2024-01-06T10:31:08;25.43;;;14.87;;
23814;SDS011;12088;53.078;8.720;2024-01-06T10:33:34;25.40;;;14.07;;
23814;SDS011;12088;53.078;8.720;2024-01-06T10:36:01;24.43;;;13.53;;
23814;SDS011;12088;53.078;8.720;2024-01-06T10:38:28;28.47;;;15.20;;
23814;SDS011;12088;53.078;8.720;2024-01-06T10:43:27;24.80;;;14.37;;
23814;SDS011;12088;53.078;8.720;2024-01-06T10:45:59;23.77;;;14.33;;
23814;SDS011;12088;53.078;8.720;2024-01-06T10:48:29;23.83;;;14.07;;
23814;SDS011;12088;53.078;8.720;2024-01-06T10:50:56;25.37;;;14.40;;
23814;SDS011;12088;53.078;8.720;2024-01-06T10:53:26;25.23;;;14.10;;
23814;SDS011;12088;53.078;8.720;2024-01-06T10:55:52;25.10;;;14.13;;
23814;SDS011;12088;53.078;8.720;2024-01-06T10:58:18;24.43;;;14.87;;
23814;SDS011;12088;53.078;8.720;2024-01-06T11:00:45;28.27;;;15.13;;
23814;SDS011;12088;53.078;8.720;2024-01-06T11:03:13;28.20;;;15.63;;
23814;SDS011;12088;53.078;8.720;2024-01-06T11:05:43;23.10;;;14.57;;
23814;SDS011;12088;53.078;8.720;2024-01-06T11:08:09;25.20;;;14.47;;
23814;SDS011;12088;53.078;8.720;2024-01-06T11:10:36;25.07;;;14.63;;
23814;SDS011;12088;53.078;8.720;2024-01-06T11:13:12;25.67;;;15.33;;
23814;SDS011;12088;53.078;8.720;2024-01-06T11:15:41;30.47;;;16.47;;
23814;SDS011;12088;53.078;8.720;2024-01-06T11:18:07;27.60;;;15.40;;
23814;SDS011;12088;53.078;8.720;2024-01-06T11:20:33;28.43;;;15.13;;
23814;SDS011;12088;53.078;8.720;2024-01-06T11:25:58;30.63;;;15.97;;
23814;SDS011;12088;53.078;8.720;2024-01-06T11:28:24;28.93;;;16.43;;
23814;SDS011;12088;53.078;8.720;2024-01-06T11:31:04;24.63;;;14.57;;
23814;SDS011;12088;53.078;8.720;2024-01-06T11:33:31;29.20;;;14.60;;
23814;SDS011;12088;53.078;8.720;2024-01-06T11:36:00;30.77;;;16.13;;
23814;SDS011;12088;53.078;8.720;2024-01-06T11:38:26;26.37;;;14.77;;
23814;SDS011;12088;53.078;8.720;2024-01-06T11:40:52;28.27;;;15.30;;
23814;SDS011;12088;53.078;8.720;2024-01-06T11:43:18;29.03;;;16.30;;
23814;SDS011;12088;53.078;8.720;2024-01-06T11:45:52;27.30;;;15.43;;
23814;SDS011;12088;53.078;8.720;2024-01-06T11:48:20;28.40;;;16.47;;
23814;SDS011;12088;53.078;8.720;2024-01-06T11:50:48;30.17;;;16.30;;
23814;SDS011;12088;53.078;8.720;2024-01-06T11:53:14;29.40;;;16.20;;
23814;SDS011;12088;53.078;8.720;2024-01-06T11:55:40;29.70;;;16.40;;
23814;SDS011;12088;53.078;8.720;2024-01-06T11:58:07;37.77;;;17.17;;
23814;SDS011;12088;53.078;8.720;2024-01-06T12:00:34;35.63;;;16.97;;
23814;SDS011;12088;53.078;8.720;2024-01-06T12:03:04;31.30;;;17.40;;
23814;SDS011;12088;53.078;8.720;2024-01-06T12:05:30;35.30;;;18.00;;
23814;SDS011;12088;53.078;8.720;2024-01-06T12:07:59;29.47;;;14.93;;
23814;SDS011;12088;53.078;8.720;2024-01-06T12:10:26;33.83;;;17.17;;
23814;SDS011;12088;53.078;8.720;2024-01-06T12:15:23;29.13;;;16.17;;
23814;SDS011;12088;53.078;8.720;2024-01-06T12:17:49;35.73;;;17.47;;
23814;SDS011;12088;53.078;8.720;2024-01-06T12:20:15;33.37;;;17.53;;
23814;SDS011;12088;53.078;8.720;2024-01-06T12:22:41;35.07;;;17.60;;
23814;SDS011;12088;53.078;8.720;2024-01-06T12:25:09;34.53;;;17.73;;
23814;SDS011;12088;53.078;8.720;2024-01-06T12:27:35;32.03;;;16.53;;
23814;SDS011;12088;53.078;8.720;2024-01-06T12:30:01;34.07;;;17.43;;
23814;SDS011;12088;53.078;8.720;2024-01-06T12:32:28;34.27;;;17.80;;
23814;SDS011;12088;53.078;8.720;2024-01-06T12:34:54;33.73;;;16.93;;
23814;SDS011;12088;53.078;8.720;2024-01-06T12:37:22;35.83;;;17.77;;
23814;SDS011;12088;53.078;8.720;2024-01-06T12:39:48;32.43;;;17.03;;
23814;SDS011;12088;53.078;8.720;2024-01-06T12:42:17;30.43;;;16.07;;
23814;SDS011;12088;53.078;8.720;2024-01-06T12:44:45;34.57;;;16.47;;
23814;SDS011;12088;53.078;8.720;2024-01-06T12:47:11;28.93;;;16.57;;
23814;SDS011;12088;53.078;8.720;2024-01-06T12:49:37;28.47;;;15.87;;
23814;SDS011;12088;53.078;8.720;2024-01-06T12:52:03;28.07;;;15.47;;
23814;SDS011;12088;53.078;8.720;2024-01-06T12:54:29;26.10;;;15.03;;
23814;SDS011;12088;53.078;8.720;2024-01-06T12:56:55;28.97;;;15.07;;
23814;SDS011;12088;53.078;8.720;2024-01-06T12:59:21;27.73;;;15.93;;
23814;SDS011;12088;53.078;8.720;2024-01-06T13:01:47;27.23;;;16.10;;
23814;SDS011;12088;53.078;8.720;2024-01-06T13:04:14;33.80;;;16.00;;
23814;SDS011;12088;53.078;8.720;2024-01-06T13:06:40;28.87;;;16.00;;
23814;SDS011;12088;53.078;8.720;2024-01-06T13:09:07;32.43;;;15.37;;
23814;SDS011;12088;53.078;8.720;2024-01-06T13:11:34;27.17;;;16.13;;
23814;SDS011;12088;53.078;8.720;2024-01-06T13:14:01;28.33;;;15.50;;
23814;SDS011;12088;53.078;8.720;2024-01-06T13:16:27;27.53;;;15.60;;
23814;SDS011;12088;53.078;8.720;2024-01-06T13:18:53;28.50;;;15.57;;
23814;SDS011;12088;53.078;8.720;2024-01-06T13:21:19;27.60;;;14.90;;
23814;SDS011;12088;53.078;8.720;2024-01-06T13:23:45;23.57;;;13.70;;
23814;SDS011;12088;53.078;8.720;2024-01-06T13:26:11;27.80;;;15.73;;
23814;SDS011;12088;53.078;8.720;2024-01-06T13:28:37;29.30;;;15.17;;
23814;SDS011;12088;53.078;8.720;2024-01-06T13:31:03;28.43;;;15.90;;
23814;SDS011;12088;53.078;8.720;2024-01-06T13:33:29;29.40;;;15.60;;
23814;SDS011;12088;53.078;8.720;2024-01-06T13:35:55;27.80;;;15.90;;
23814;SDS011;12088;53.078;8.720;2024-01-06T13:38:21;30.87;;;16.23;;
23814;SDS011;12088;53.078;8.720;2024-01-06T13:40:47;25.83;;;14.93;;
23814;SDS011;12088;53.078;8.720;2024-01-06T13:43:13;30.57;;;16.13;;
23814;SDS011;12088;53.078;8.720;2024-01-06T13:45:41;26.37;;;14.60;;
23814;SDS011;12088;53.078;8.720;2024-01-06T13:48:08;27.67;;;14.77;;
23814;SDS011;12088;53.078;8.720;2024-01-06T13:50:34;26.57;;;14.50;;
23814;SDS011;12088;53.078;8.720;2024-01-06T13:53:00;28.90;;;14.80;;
23814;SDS011;12088;53.078;8.720;2024-01-06T13:55:28;28.83;;;15.10;;
23814;SDS011;12088;53.078;8.720;2024-01-06T13:57:54;28.53;;;15.17;;
23814;SDS011;12088;53.078;8.720;2024-01-06T14:00:20;26.03;;;14.17;;
23814;SDS011;12088;53.078;8.720;2024-01-06T14:02:46;29.03;;;15.73;;
23814;SDS011;12088;53.078;8.720;2024-01-06T14:05:12;26.33;;;14.03;;
23814;SDS011;12088;53.078;8.720;2024-01-06T14:07:38;25.20;;;14.00;;
23814;SDS011;12088;53.078;8.720;2024-01-06T14:10:10;23.70;;;14.20;;
23814;SDS011;12088;53.078;8.720;2024-01-06T14:12:35;24.80;;;13.90;;
23814;SDS011;12088;53.078;8.720;2024-01-06T14:15:01;30.40;;;15.63;;
23814;SDS011;12088;53.078;8.720;2024-01-06T14:17:28;24.33;;;14.10;;
23814;SDS011;12088;53.078;8.720;2024-01-06T14:19:54;26.67;;;15.33;;
23814;SDS011;12088;53.078;8.720;2024-01-06T14:22:20;27.07;;;14.37;;
23814;SDS011;12088;53.078;8.720;2024-01-06T14:24:46;28.67;;;15.20;;
23814;SDS011;12088;53.078;8.720;2024-01-06T14:27:12;26.83;;;14.50;;
23814;SDS011;12088;53.078;8.720;2024-01-06T14:29:39;26.60;;;14.20;;
23814;SDS011;12088;53.078;8.720;2024-01-06T14:32:05;24.63;;;14.43;;